Time;durP1;ratioP1;P1;durP2;ratioP2;P2;SDS_P1;SDS_P2;PMS_P1;PMS_P2;Temp;Humidity;BMP_temperature;BMP_pressure;BME280_temperature;BME280_humidity;BME280_pressure;Samples;Min_cycle;Max_cycle;Signal;HPM_P1;HPM_P2
2023/08/13 00:01:23;;;;;;;9.98;2.50;;;;;;;17.26;95.58;101627.72;5089387;28;20036;-69
2023/08/13 00:03:48;;;;;;;11.93;2.72;;;;;;;17.25;96.31;101634.19;5089614;28;20103;-69
2023/08/13 00:06:14;;;;;;;7.38;2.75;;;;;;;17.22;95.87;101632.75;5089516;28;20032;-69
2023/08/13 00:08:39;;;;;;;7.63;2.90;;;;;;;17.22;96.26;101634.63;5089507;28;20047;-70
2023/08/13 00:11:14;;;;;;;7.85;3.15;;;;;;;17.18;98.41;101626.13;5089689;28;20404;-69
2023/08/13 00:13:42;;;;;;;16.55;3.78;;;;;;;17.18;97.95;101634.22;5068934;28;20036;-69
2023/08/13 00:16:09;;;;;;;11.20;4.13;;;;;;;17.15;96.83;101629.28;5070108;28;20032;-70
2023/08/13 00:18:35;;;;;;;11.35;2.60;;;;;;;17.14;97.10;101624.94;5070127;28;20033;-69
2023/08/13 00:21:00;;;;;;;5.57;2.65;;;;;;;17.10;97.24;101626.41;5070042;28;20036;-69
2023/08/13 00:23:26;;;;;;;7.80;2.53;;;;;;;17.12;97.75;101629.72;5082976;28;20024;-69
2023/08/13 00:25:51;;;;;;;5.30;2.63;;;;;;;17.08;97.42;101625.81;5089238;28;20398;-69
2023/08/13 00:28:17;;;;;;;9.40;3.17;;;;;;;17.06;98.36;101623.34;5089157;28;20042;-69
2023/08/13 00:30:42;;;;;;;8.15;3.00;;;;;;;17.04;98.55;101628.13;5089022;28;20162;-69
2023/08/13 00:33:07;;;;;;;4.07;2.55;;;;;;;17.04;98.72;101628.13;5087736;28;20471;-69
2023/08/13 00:35:33;;;;;;;11.57;3.63;;;;;;;17.03;98.47;101633.75;5089140;28;20071;-69
2023/08/13 00:37:58;;;;;;;11.45;2.80;;;;;;;17.03;98.55;101623.78;5089035;28;20029;-69
2023/08/13 00:40:24;;;;;;;10.27;2.97;;;;;;;17.02;98.67;101624.81;5088949;28;20044;-69
2023/08/13 00:42:49;;;;;;;12.68;3.95;;;;;;;17.01;100.00;101628.56;5087553;28;20111;-69
2023/08/13 00:45:14;;;;;;;10.77;3.65;;;;;;;17.01;99.04;101627.75;5088927;28;20888;-69
2023/08/13 00:47:40;;;;;;;8.50;3.25;;;;;;;17.01;98.66;101623.19;5088990;28;20035;-69
2023/08/13 00:50:06;;;;;;;9.95;2.88;;;;;;;17.00;99.60;101626.94;5088998;28;20032;-69
2023/08/13 00:52:32;;;;;;;7.93;3.13;;;;;;;17.00;99.06;101621.53;5088986;28;20036;-69
2023/08/13 00:54:58;;;;;;;6.75;2.30;;;;;;;16.92;99.58;101616.41;5087818;28;20036;-69
2023/08/13 00:57:24;;;;;;;10.77;2.88;;;;;;;16.93;99.79;101615.38;5087603;28;20034;-69
2023/08/13 00:59:51;;;;;;;5.03;2.00;;;;;;;16.93;99.52;101617.25;5088809;28;20028;-69
2023/08/13 01:02:17;;;;;;;11.75;3.33;;;;;;;16.87;99.91;101616.25;5092627;28;20112;-69
2023/08/13 01:04:43;;;;;;;4.43;2.45;;;;;;;16.87;100.00;101613.53;5072600;28;20016;-69
2023/08/13 01:07:29;;;;;;;11.73;2.83;;;;;;;16.88;100.00;101614.41;5093034;28;20040;-69
2023/08/13 01:10:14;;;;;;;9.93;2.60;;;;;;;16.81;100.00;101604.47;5092910;28;20165;-69
2023/08/13 01:13:01;;;;;;;6.05;2.22;;;;;;;16.81;100.00;101604.47;5092711;28;20039;-69
2023/08/13 01:15:31;;;;;;;10.00;2.72;;;;;;;16.79;100.00;101619.22;5080700;28;20029;-70
2023/08/13 01:17:58;;;;;;;11.40;3.70;;;;;;;16.73;100.00;101615.50;5092741;28;20025;-69
2023/08/13 01:20:32;;;;;;;6.78;2.05;;;;;;;16.77;100.00;101613.22;5092675;28;20035;-69
2023/08/13 01:22:58;;;;;;;9.18;3.00;;;;;;;16.73;100.00;101609.28;5091308;28;20032;-69
2023/08/13 01:25:27;;;;;;;5.47;2.40;;;;;;;16.71;100.00;101608.69;5079380;28;20026;-70
2023/08/13 01:28:12;;;;;;;4.95;2.10;;;;;;;16.69;100.00;101610.75;5092333;28;20028;-69
2023/08/13 01:30:40;;;;;;;6.53;1.90;;;;;;;16.67;100.00;101612.88;5092534;28;20509;-69
2023/08/13 01:33:08;;;;;;;6.95;2.15;;;;;;;16.58;100.00;101602.38;5092401;28;20070;-69
2023/08/13 01:35:35;;;;;;;8.32;2.55;;;;;;;16.59;100.00;101605.88;5092536;28;20020;-69
2023/08/13 01:38:02;;;;;;;7.65;2.25;;;;;;;16.54;100.00;101616.47;5092389;28;20054;-69
2023/08/13 01:40:28;;;;;;;5.90;2.80;;;;;;;16.51;100.00;101619.59;5092106;28;20138;-69
2023/08/13 01:42:53;;;;;;;8.32;2.13;;;;;;;16.46;100.00;101622.13;5092366;28;20115;-69
2023/08/13 01:45:19;;;;;;;7.07;2.35;;;;;;;16.42;100.00;101625.22;5092272;28;20366;-69
2023/08/13 01:47:45;;;;;;;8.23;3.08;;;;;;;16.33;100.00;101612.25;5092296;28;20590;-69
2023/08/13 01:50:10;;;;;;;8.25;2.25;;;;;;;16.39;100.00;101617.59;5092275;28;20039;-69
2023/08/13 01:52:36;;;;;;;11.02;3.08;;;;;;;16.34;100.00;101628.19;5092153;28;20548;-69
2023/08/13 01:55:03;;;;;;;5.78;2.55;;;;;;;16.34;100.00;101628.19;5090743;28;20036;-69
2023/08/13 01:57:29;;;;;;;9.35;1.90;;;;;;;16.32;100.00;101618.66;5090781;28;20085;-69
2023/08/13 01:59:54;;;;;;;6.30;2.20;;;;;;;16.33;100.00;101626.53;5092044;28;20035;-69
2023/08/13 02:02:19;;;;;;;5.20;2.53;;;;;;;16.30;100.00;101626.16;5092225;28;20028;-69
2023/08/13 02:04:45;;;;;;;5.43;1.95;;;;;;;16.32;100.00;101626.75;5090915;28;20039;-69
2023/08/13 02:07:10;;;;;;;3.70;1.73;;;;;;;16.31;100.00;101633.19;5091824;28;20135;-69
2023/08/13 02:09:35;;;;;;;8.70;2.50;;;;;;;16.27;100.00;101623.88;5091452;28;20039;-69
2023/08/13 02:12:01;;;;;;;11.50;2.28;;;;;;;16.30;100.00;101624.28;5070341;28;20095;-69
2023/08/13 02:14:27;;;;;;;9.98;2.38;;;;;;;16.30;100.00;101626.16;5072100;28;20036;-69
2023/08/13 02:16:53;;;;;;;7.43;1.90;;;;;;;16.28;100.00;101617.47;5070946;28;20033;-69
2023/08/13 02:19:18;;;;;;;5.57;2.47;;;;;;;16.24;100.00;101613.53;5091587;28;20498;-69
2023/08/13 02:21:43;;;;;;;5.03;2.53;;;;;;;16.23;100.00;101614.59;5091666;28;20028;-69
2023/08/13 02:24:09;;;;;;;12.43;2.92;;;;;;;16.21;100.00;101623.69;5090367;28;20100;-69
2023/08/13 02:26:34;;;;;;;10.65;2.65;;;;;;;16.21;100.00;101618.31;5091532;28;20139;-69
2023/08/13 02:28:59;;;;;;;8.38;3.08;;;;;;;16.20;100.00;101622.03;5091468;28;20028;-69
2023/08/13 02:31:25;;;;;;;8.75;3.22;;;;;;;16.20;100.00;101616.66;5091304;28;20037;-69
2023/08/13 02:33:50;;;;;;;6.68;2.63;;;;;;;16.21;100.00;101615.59;5091581;28;20485;-69
2023/08/13 02:36:15;;;;;;;6.68;2.10;;;;;;;16.18;100.00;101607.16;5090056;28;20529;-69
2023/08/13 02:38:41;;;;;;;7.32;2.25;;;;;;;16.18;100.00;101610.66;5089772;28;20048;-69
2023/08/13 02:41:06;;;;;;;8.25;3.50;;;;;;;16.16;100.00;101604.66;5091116;28;20131;-69
2023/08/13 02:43:48;;;;;;;7.82;2.58;;;;;;;16.14;100.00;101606.78;5091174;28;20376;-70
2023/08/13 02:46:13;;;;;;;;;;;;;;;16.18;100.00;101607.16;5091426;28;20028;-69
2023/08/13 02:48:39;;;;;;;6.83;2.10;;;;;;;16.12;100.00;101594.56;5091114;28;19969;-69
2023/08/13 02:51:04;;;;;;;8.70;2.88;;;;;;;16.06;100.00;101601.63;5090908;28;20111;-69
2023/08/13 02:53:29;;;;;;;6.82;2.15;;;;;;;16.08;100.00;101606.78;5090820;28;20115;-71
2023/08/13 02:55:55;;;;;;;8.45;2.63;;;;;;;16.06;100.00;101601.63;5090981;28;20035;-69
2023/08/13 02:58:20;;;;;;;9.27;2.63;;;;;;;16.07;100.00;101605.16;5090903;28;20032;-69
2023/08/13 03:00:45;;;;;;;7.82;2.30;;;;;;;16.03;100.00;101611.97;5090583;28;20032;-69
2023/08/13 03:03:11;;;;;;;5.50;2.20;;;;;;;16.04;100.00;101605.59;5090960;28;20083;-69
2023/08/13 03:05:36;;;;;;;15.45;2.40;;;;;;;16.00;100.00;101603.28;5090765;28;20068;-69
2023/08/13 03:08:01;;;;;;;8.88;2.53;;;;;;;16.00;100.00;101599.78;5090728;28;20105;-69
2023/08/13 03:10:27;;;;;;;6.82;2.78;;;;;;;16.00;100.00;101599.78;5089253;28;20043;-69
2023/08/13 03:12:52;;;;;;;9.05;2.08;;;;;;;15.99;100.00;101603.53;5090610;28;20024;-69
2023/08/13 03:15:17;;;;;;;10.65;2.08;;;;;;;15.96;100.00;101598.59;5090604;28;20028;-69
2023/08/13 03:17:43;;;;;;;5.90;2.58;;;;;;;15.91;100.00;101603.78;5090479;28;20012;-69
2023/08/13 03:20:09;;;;;;;9.82;2.88;;;;;;;15.94;100.00;101603.34;5089333;28;20051;-69
2023/08/13 03:22:34;;;;;;;7.40;2.88;;;;;;;15.93;100.00;101602.53;5089051;28;20479;-69
2023/08/13 03:24:59;;;;;;;5.45;1.70;;;;;;;15.98;100.00;101607.25;5090286;28;20032;-69
2023/08/13 03:27:25;;;;;;;9.52;2.20;;;;;;;15.92;100.00;101606.22;5090391;28;20115;-69
2023/08/13 03:29:50;;;;;;;8.30;2.42;;;;;;;15.90;100.00;101596.72;5088794;28;20086;-69
2023/08/13 03:32:15;;;;;;;8.75;2.28;;;;;;;15.95;100.00;101600.41;5087875;28;20040;-69
2023/08/13 03:34:41;;;;;;;10.25;2.92;;;;;;;15.89;100.00;101605.84;5070671;28;20135;-69
2023/08/13 03:37:06;;;;;;;7.70;2.95;;;;;;;15.83;100.00;101604.03;5070815;28;20028;-69
2023/08/13 03:39:32;;;;;;;11.75;3.83;;;;;;;15.70;100.00;101580.69;5070449;28;20139;-69
2023/08/13 03:41:57;;;;;;;4.68;2.10;;;;;;;15.79;100.00;101608.97;5070718;28;20376;-69
2023/08/13 03:44:22;;;;;;;5.88;2.13;;;;;;;15.76;100.00;101604.84;5070712;28;20055;-69
2023/08/13 03:46:48;;;;;;;5.93;2.75;;;;;;;15.77;100.00;101598.44;5070703;28;20115;-69
2023/08/13 03:49:13;;;;;;;6.13;2.90;;;;;;;15.78;100.00;101597.41;5070521;28;20028;-69
2023/08/13 03:51:39;;;;;;;8.10;2.83;;;;;;;15.77;100.00;101603.81;5089460;28;20032;-69
2023/08/13 03:54:04;;;;;;;8.77;3.08;;;;;;;15.78;100.00;101607.34;5089836;28;20878;-69
2023/08/13 03:56:29;;;;;;;8.63;2.53;;;;;;;15.74;100.00;101606.91;5089714;28;20032;-69
2023/08/13 03:58:55;;;;;;;6.93;2.53;;;;;;;15.69;100.00;101609.44;5088709;28;20046;-69
2023/08/13 04:01:20;;;;;;;6.30;2.00;;;;;;;15.67;100.00;101611.47;5089526;28;20371;-69
2023/08/13 04:03:45;;;;;;;9.20;1.95;;;;;;;15.62;100.00;101610.47;5070188;28;20016;-69
2023/08/13 04:06:11;;;;;;;9.20;3.00;;;;;;;15.63;100.00;101617.50;5070313;28;20106;-69
2023/08/13 04:08:36;;;;;;;9.57;3.53;;;;;;;15.60;100.00;101601.78;5070211;28;20020;-69
2023/08/13 04:11:01;;;;;;;9.73;3.53;;;;;;;15.58;100.00;101612.72;5070108;28;20060;-69
2023/08/13 04:13:27;;;;;;;7.95;3.30;;;;;;;15.53;100.00;101615.22;5070063;28;20043;-69
2023/08/13 04:15:52;;;;;;;10.25;2.58;;;;;;;15.56;100.00;101612.13;5069504;28;20036;-70
2023/08/13 04:18:18;;;;;;;11.32;3.40;;;;;;;15.50;100.00;101612.97;5087824;28;20036;-69
2023/08/13 04:20:43;;;;;;;8.23;2.97;;;;;;;15.40;100.00;101602.63;5088024;28;20570;-70
2023/08/13 04:23:09;;;;;;;7.35;3.00;;;;;;;15.49;100.00;101616.72;5088598;28;20074;-69
2023/08/13 04:25:34;;;;;;;9.38;2.95;;;;;;;15.41;100.00;101609.69;5088759;28;20020;-69
2023/08/13 04:27:59;;;;;;;9.85;2.97;;;;;;;15.44;100.00;101606.56;5088803;28;20027;-69
2023/08/13 04:30:25;;;;;;;10.63;3.70;;;;;;;15.42;100.00;101613.19;5081474;28;20032;-69
2023/08/13 04:32:55;;;;;;;10.15;2.58;;;;;;;15.43;100.00;101606.78;5075913;28;20134;-69
2023/08/13 04:35:21;;;;;;;8.73;3.33;;;;;;;15.34;100.00;101612.38;5069028;28;20024;-69
2023/08/13 04:37:49;;;;;;;8.88;3.47;;;;;;;15.37;100.00;101607.63;5088332;28;20154;-69
2023/08/13 04:40:14;;;;;;;7.75;3.10;;;;;;;15.33;100.00;101612.59;5087479;28;20096;-69
2023/08/13 04:42:41;;;;;;;9.20;3.47;;;;;;;15.29;100.00;101616.72;5088564;28;20016;-69
2023/08/13 04:45:06;;;;;;;8.70;2.33;;;;;;;15.26;100.00;101615.28;5088683;28;20024;-69
2023/08/13 04:47:32;;;;;;;5.32;2.45;;;;;;;15.29;100.00;101617.56;5088824;28;20086;-69
2023/08/13 04:49:57;;;;;;;6.13;2.97;;;;;;;15.30;100.00;101611.16;5087187;28;20111;-69
2023/08/13 04:52:23;;;;;;;9.73;3.25;;;;;;;15.30;100.00;101621.91;5088748;28;20028;-69
2023/08/13 04:54:48;;;;;;;9.15;3.00;;;;;;;15.30;100.00;101611.16;5088512;28;20072;-69
2023/08/13 04:57:13;;;;;;;8.55;3.17;;;;;;;15.30;100.00;101615.69;5088330;28;20032;-69
2023/08/13 04:59:39;;;;;;;6.43;2.75;;;;;;;15.34;100.00;101620.44;5087363;28;20532;-68
2023/08/13 05:02:04;;;;;;;8.52;2.90;;;;;;;15.37;100.00;101619.19;5088311;28;20036;-69
2023/08/13 05:04:30;;;;;;;8.23;4.90;;;;;;;15.34;100.00;101612.38;5082840;28;20020;-69
2023/08/13 05:06:55;;;;;;;4.97;2.08;;;;;;;15.42;100.00;101622.09;5075979;28;20056;-69
2023/08/13 05:09:20;;;;;;;9.60;2.92;;;;;;;15.44;100.00;101617.31;5069923;28;20048;-69
2023/08/13 05:11:46;;;;;;;9.57;2.75;;;;;;;15.41;100.00;101612.38;5067746;28;20054;-69
2023/08/13 05:14:11;;;;;;;8.00;2.80;;;;;;;15.41;100.00;101616.94;5069247;28;20139;-69
2023/08/13 05:16:36;;;;;;;11.30;2.95;;;;;;;15.46;100.00;101617.13;5069213;28;20433;-69
2023/08/13 05:19:03;;;;;;;7.20;3.30;;;;;;;15.48;100.00;101610.50;5082439;28;20492;-69
2023/08/13 05:21:28;;;;;;;8.88;2.97;;;;;;;15.58;100.00;101612.72;5069107;28;20020;-69
2023/08/13 05:23:54;;;;;;;9.32;2.72;;;;;;;15.56;100.00;101612.97;5069047;28;20669;-69
2023/08/13 05:26:19;;;;;;;9.80;3.08;;;;;;;15.59;100.00;101613.56;5086812;28;20142;-69
2023/08/13 05:28:45;;;;;;;9.02;3.25;;;;;;;15.55;100.00;101611.28;5088271;28;20031;-69
2023/08/13 05:31:10;;;;;;;13.18;3.25;;;;;;;15.56;100.00;101615.66;5088203;28;20039;-69
2023/08/13 05:33:36;;;;;;;10.57;3.75;;;;;;;15.56;100.00;101620.19;5088235;28;20525;-69
2023/08/13 05:36:02;;;;;;;11.52;5.05;;;;;;;15.60;100.00;101612.53;5084094;28;20138;-69
2023/08/13 05:38:28;;;;;;;7.03;4.07;;;;;;;15.62;100.00;101629.28;5067605;28;20020;-69
2023/08/13 05:40:54;;;;;;;8.32;2.47;;;;;;;15.61;100.00;101625.75;5081949;28;20067;-69
2023/08/13 05:43:19;;;;;;;9.50;2.92;;;;;;;15.66;100.00;101633.19;5088253;28;20035;-70
2023/08/13 05:45:44;;;;;;;7.13;3.28;;;;;;;15.61;100.00;101624.94;5087911;28;20028;-70
2023/08/13 05:48:10;;;;;;;9.07;3.17;;;;;;;15.64;100.00;101630.72;5080209;28;20515;-69
2023/08/13 05:50:35;;;;;;;13.65;3.00;;;;;;;15.58;100.00;101628.88;5072622;28;20024;-70
2023/08/13 05:53:00;;;;;;;14.27;4.53;;;;;;;15.65;100.00;101629.69;5072386;28;20060;-70
2023/08/13 05:55:26;;;;;;;6.22;3.95;;;;;;;15.71;100.00;101634.25;5072490;28;20472;-70
2023/08/13 05:57:51;;;;;;;10.85;4.03;;;;;;;15.78;100.00;101635.06;5089277;28;20479;-69
2023/08/13 06:00:17;;;;;;;10.35;3.72;;;;;;;15.88;100.00;101631.09;5072227;28;20124;-69
2023/08/13 06:02:42;;;;;;;13.20;3.25;;;;;;;15.98;100.00;101634.16;5084378;28;20032;-69
2023/08/13 06:05:08;;;;;;;6.85;3.08;;;;;;;16.06;100.00;101633.94;5072318;28;20108;-69
2023/08/13 06:07:34;;;;;;;8.90;3.58;;;;;;;16.11;100.00;101631.44;5072473;28;20020;-70
2023/08/13 06:10:00;;;;;;;10.73;4.38;;;;;;;16.20;100.00;101643.59;5072064;28;20033;-70
2023/08/13 06:12:25;;;;;;;8.85;3.83;;;;;;;16.29;100.00;101636.06;5075677;28;20493;-70
2023/08/13 06:14:51;;;;;;;6.15;2.47;;;;;;;16.37;100.00;101643.91;5091547;28;20080;-70
2023/08/13 06:17:16;;;;;;;12.60;3.35;;;;;;;16.43;100.00;101640.34;5073341;28;20043;-70
2023/08/13 06:19:42;;;;;;;8.48;4.32;;;;;;;16.49;100.00;101638.66;5071974;28;20075;-69
2023/08/13 06:22:08;;;;;;;10.45;3.45;;;;;;;16.53;100.00;101647.97;5071873;28;20059;-70
2023/08/13 06:24:34;;;;;;;7.43;3.47;;;;;;;16.56;100.00;101644.84;5070565;28;20025;-69
2023/08/13 06:26:59;;;;;;;6.72;2.65;;;;;;;16.64;100.00;101641.88;5071929;28;20031;-69
2023/08/13 06:29:24;;;;;;;7.05;2.45;;;;;;;16.76;100.00;101642.00;5090997;28;20116;-69
2023/08/13 06:31:50;;;;;;;8.50;2.92;;;;;;;16.88;100.00;101635.94;5086842;28;20047;-69
2023/08/13 06:34:15;;;;;;;8.95;3.22;;;;;;;16.98;100.00;101647.06;5091015;28;20032;-70
2023/08/13 06:36:41;;;;;;;7.57;2.63;;;;;;;17.08;100.00;101641.97;5090993;28;20043;-69
2023/08/13 06:39:06;;;;;;;13.40;3.40;;;;;;;17.21;100.00;101646.44;5089395;28;20039;-69
2023/08/13 06:41:32;;;;;;;15.77;3.90;;;;;;;17.30;100.00;101640.53;5089608;28;20032;-69
2023/08/13 06:43:57;;;;;;;10.05;3.15;;;;;;;17.41;100.00;101639.00;5070493;28;20528;-69
2023/08/13 06:46:22;;;;;;;5.55;3.00;;;;;;;17.47;100.00;101643.47;5081252;28;20032;-70
2023/08/13 06:48:48;;;;;;;7.97;2.83;;;;;;;17.48;100.00;101647.84;5090793;28;20425;-69
2023/08/13 06:51:14;;;;;;;13.02;3.33;;;;;;;17.46;100.00;101631.06;5090720;28;20107;-69
2023/08/13 06:53:39;;;;;;;6.68;2.60;;;;;;;17.51;100.00;101650.09;5075831;28;20387;-69
2023/08/13 06:56:06;;;;;;;11.85;2.28;;;;;;;17.55;100.00;101650.47;5071845;28;20028;-69
2023/08/13 06:58:31;;;;;;;7.95;3.25;;;;;;;17.59;100.00;101645.47;5089662;28;20035;-70
2023/08/13 07:00:57;;;;;;;9.32;2.47;;;;;;;17.66;100.00;101648.91;5090444;28;20040;-70
2023/08/13 07:03:23;;;;;;;6.13;2.83;;;;;;;17.74;100.00;101648.63;5078919;28;20048;-69
2023/08/13 07:05:48;;;;;;;10.38;2.97;;;;;;;17.79;100.00;101646.09;5071028;28;20067;-70
2023/08/13 07:08:13;;;;;;;10.32;2.72;;;;;;;17.85;100.00;101647.88;5090339;28;20029;-69
2023/08/13 07:10:40;;;;;;;6.60;2.70;;;;;;;17.89;100.00;101637.47;5089897;28;20035;-70
2023/08/13 07:13:06;;;;;;;5.05;2.45;;;;;;;18.04;100.00;101645.19;5087646;28;20044;-70
2023/08/13 07:15:32;;;;;;;8.38;2.78;;;;;;;18.11;100.00;101644.03;5081609;28;20712;-70
2023/08/13 07:17:57;;;;;;;9.93;2.83;;;;;;;18.20;100.00;101644.53;5089574;28;20031;-70
2023/08/13 07:20:22;;;;;;;6.38;1.90;;;;;;;18.26;100.00;101637.41;5089811;28;20138;-70
2023/08/13 07:22:48;;;;;;;7.88;2.50;;;;;;;18.31;100.00;101627.59;5089201;28;20402;-70
2023/08/13 07:25:14;;;;;;;6.97;2.58;;;;;;;18.42;100.00;101630.53;5089909;28;20044;-70
2023/08/13 07:27:41;;;;;;;8.10;2.60;;;;;;;18.48;100.00;101632.34;5090128;28;20085;-70
2023/08/13 07:30:08;;;;;;;4.25;2.35;;;;;;;18.54;100.00;101626.00;5072086;28;20074;-70
2023/08/13 07:32:35;;;;;;;4.55;2.40;;;;;;;18.64;100.00;101633.56;5069568;28;20063;-70
2023/08/13 07:35:01;;;;;;;6.50;2.50;;;;;;;18.71;100.00;101635.09;5070537;28;20029;-70
2023/08/13 07:37:28;;;;;;;13.95;3.10;;;;;;;18.79;100.00;101631.28;5088127;28;20181;-70
2023/08/13 07:39:54;;;;;;;13.40;2.78;;;;;;;18.82;100.00;101625.41;5084825;28;20052;-70
2023/08/13 07:42:19;;;;;;;7.35;2.97;;;;;;;18.96;100.00;101634.09;5077021;28;20438;-70
2023/08/13 07:44:45;;;;;;;6.80;2.47;;;;;;;19.03;100.00;101635.63;5077760;28;20036;-71
2023/08/13 07:47:11;;;;;;;8.13;3.03;;;;;;;19.14;100.00;101639.41;5077426;28;20067;-71
2023/08/13 07:49:36;;;;;;;6.25;2.05;;;;;;;19.17;100.00;101638.94;5078236;28;20626;-71
2023/08/13 07:52:01;;;;;;;8.85;2.88;;;;;;;19.31;100.00;101639.53;5078812;28;20032;-70
2023/08/13 07:54:28;;;;;;;6.07;2.22;;;;;;;19.34;100.00;101633.66;5077776;28;20523;-70
2023/08/13 07:56:53;;;;;;;1.73;1.60;;;;;;;19.41;100.00;101637.06;5079192;28;20035;-71
2023/08/13 07:59:19;;;;;;;9.27;2.78;;;;;;;19.46;100.00;101639.06;5081107;28;20391;-71
2023/08/13 08:01:45;;;;;;;4.90;2.20;;;;;;;19.52;100.00;101640.81;5078144;28;20052;-71
2023/08/13 08:04:10;;;;;;;6.32;2.10;;;;;;;19.63;100.00;101639.16;5081146;28;20024;-71
2023/08/13 08:06:35;;;;;;;7.90;2.28;;;;;;;19.76;99.98;101635.41;5076986;28;20039;-71
2023/08/13 08:09:01;;;;;;;5.40;2.38;;;;;;;19.87;98.89;101627.25;5081009;28;20071;-71
2023/08/13 08:11:27;;;;;;;7.78;2.35;;;;;;;20.01;98.49;101627.78;5082035;28;20028;-71
2023/08/13 08:13:52;;;;;;;5.78;2.35;;;;;;;20.31;97.72;101622.13;5084909;28;20054;-70
2023/08/13 08:16:17;;;;;;;10.73;4.43;;;;;;;20.54;96.32;101634.78;5083004;28;20043;-70
2023/08/13 08:18:43;;;;;;;9.45;3.75;;;;;;;20.74;97.31;101633.47;5082760;28;20119;-70
2023/08/13 08:21:08;;;;;;;9.98;2.70;;;;;;;21.13;95.21;101628.13;5082865;28;20024;-71
2023/08/13 08:23:34;;;;;;;10.40;2.38;;;;;;;21.43;94.55;101623.19;5077100;28;20535;-71
2023/08/13 08:25:59;;;;;;;10.65;2.15;;;;;;;21.38;92.74;101625.84;5082383;28;20025;-71
2023/08/13 08:28:25;;;;;;;6.97;1.75;;;;;;;21.27;91.97;101632.13;5083227;28;20036;-71
2023/08/13 08:30:51;;;;;;;9.73;2.33;;;;;;;21.07;91.34;101629.16;5079632;28;20441;-71
2023/08/13 08:33:16;;;;;;;4.68;1.40;;;;;;;21.00;93.18;101629.28;5079005;28;20032;-70
2023/08/13 08:35:41;;;;;;;8.27;2.75;;;;;;;20.91;92.86;101631.59;5078382;28;20177;-70
2023/08/13 08:38:07;;;;;;;10.13;2.58;;;;;;;20.79;93.66;101637.09;5078277;28;20036;-70
2023/08/13 08:40:32;;;;;;;5.13;1.67;;;;;;;20.69;92.30;101633.41;5076780;28;20141;-71
2023/08/13 08:42:58;;;;;;;17.63;4.15;;;;;;;20.72;93.92;101625.63;5081125;28;20041;-70
2023/08/13 08:45:24;;;;;;;11.25;2.40;;;;;;;20.85;93.28;101629.88;5076830;28;20443;-70
2023/08/13 08:47:51;;;;;;;9.20;2.08;;;;;;;20.91;93.89;101636.22;5079116;28;20491;-70
2023/08/13 08:50:17;;;;;;;7.38;2.65;;;;;;;20.88;91.01;101629.41;5079678;28;20479;-70
2023/08/13 08:52:43;;;;;;;9.23;2.38;;;;;;;20.91;93.07;101628.91;5084088;28;20024;-70
2023/08/13 08:55:11;;;;;;;16.40;3.45;;;;;;;20.86;92.57;101628.00;5078953;28;20118;-70
2023/08/13 08:57:38;;;;;;;6.82;2.30;;;;;;;20.83;93.35;101628.47;5075962;28;20166;-70
2023/08/13 09:00:04;;;;;;;5.88;1.83;;;;;;;20.83;93.22;101623.03;5071650;28;21558;-70
2023/08/13 09:02:30;;;;;;;8.80;3.20;;;;;;;20.89;93.02;101613.94;5072806;28;20032;-70
2023/08/13 09:04:56;;;;;;;5.15;1.95;;;;;;;20.99;90.53;101606.78;5073787;28;20490;-70
2023/08/13 09:07:31;;;;;;;5.82;1.80;;;;;;;21.13;89.99;101609.16;5066575;28;20035;-70
2023/08/13 09:09:57;;;;;;;6.57;1.60;;;;;;;21.23;91.69;101610.13;5074252;28;20016;-70
2023/08/13 09:12:23;;;;;;;9.27;2.67;;;;;;;21.27;88.61;101609.63;5072738;28;20503;-70
2023/08/13 09:14:53;;;;;;;6.57;1.70;;;;;;;21.32;87.00;101599.66;5072364;28;20066;-68
2023/08/13 09:17:18;;;;;;;6.03;1.90;;;;;;;21.43;88.02;101603.34;5072930;28;20032;-71
2023/08/13 09:19:43;;;;;;;9.10;1.80;;;;;;;21.60;90.64;101606.03;5071364;28;20032;-71
2023/08/13 09:22:10;;;;;;;6.07;2.03;;;;;;;21.71;86.59;101601.53;5074491;28;20068;-70
2023/08/13 09:24:36;;;;;;;7.25;2.85;;;;;;;21.75;87.30;101598.09;5076925;28;20498;-70
2023/08/13 09:27:03;;;;;;;8.93;2.90;;;;;;;21.75;85.85;101598.09;5075500;28;20016;-69
2023/08/13 09:29:30;;;;;;;7.78;2.50;;;;;;;21.70;84.19;101594.50;5076202;28;20032;-69
2023/08/13 09:31:56;;;;;;;4.18;2.28;;;;;;;21.76;86.72;101593.47;5076018;28;20031;-70
2023/08/13 09:34:22;;;;;;;7.30;2.55;;;;;;;21.87;85.44;101598.75;5076417;28;20369;-69
2023/08/13 09:36:47;;;;;;;6.07;2.30;;;;;;;21.92;82.42;101589.84;5076369;28;20099;-70
2023/08/13 09:39:13;;;;;;;6.40;1.80;;;;;;;21.94;81.45;101592.31;5075855;28;20039;-70
2023/08/13 09:41:39;;;;;;;7.03;1.42;;;;;;;21.89;81.12;101588.47;5075437;28;20052;-72
2023/08/13 09:44:09;;;;;;;3.42;1.60;;;;;;;21.95;83.25;101583.09;5076365;28;20091;-71
2023/08/13 09:46:36;;;;;;;6.50;1.40;;;;;;;22.06;82.87;101584.81;5076131;28;20068;-72
2023/08/13 09:49:04;;;;;;;8.65;2.63;;;;;;;22.18;83.24;101577.34;5075719;28;20032;-72
2023/08/13 09:51:32;;;;;;;5.43;1.73;;;;;;;22.31;80.14;101568.00;5074830;28;20050;-72
2023/08/13 09:54:03;;;;;;;6.78;2.50;;;;;;;22.30;78.58;101569.09;5075372;28;20046;-72
2023/08/13 09:56:29;;;;;;;5.72;2.15;;;;;;;22.32;78.92;101564.19;5073339;28;20029;-72
2023/08/13 09:58:55;;;;;;;12.07;2.15;;;;;;;22.48;79.46;101560.56;5076494;28;20391;-72
2023/08/13 10:01:22;;;;;;;6.65;2.60;;;;;;;22.68;79.25;101568.03;5074638;28;20039;-71
2023/08/13 10:03:48;;;;;;;4.63;1.75;;;;;;;22.73;78.27;101556.38;5073814;28;20107;-70
2023/08/13 10:06:15;;;;;;;7.18;2.33;;;;;;;22.69;76.93;101555.28;5075759;28;20479;-70
2023/08/13 10:08:42;;;;;;;5.03;2.53;;;;;;;22.74;78.06;101539.81;5076153;28;20553;-70
2023/08/13 10:11:08;;;;;;;10.65;2.22;;;;;;;22.74;75.74;101555.28;5074535;28;20433;-70
2023/08/13 10:13:34;;;;;;;6.30;3.03;;;;;;;22.74;77.51;101552.56;5076424;28;20040;-70
2023/08/13 10:16:00;;;;;;;7.50;2.83;;;;;;;22.76;77.20;101550.41;5074781;28;20034;-70
2023/08/13 10:18:28;;;;;;;6.32;2.40;;;;;;;22.73;74.37;101546.31;5075003;28;20020;-70
2023/08/13 10:20:53;;;;;;;10.50;2.28;;;;;;;22.70;75.21;101552.28;5075325;28;20032;-69
2023/08/13 10:23:19;;;;;;;2.78;1.90;;;;;;;22.69;76.32;101556.09;5074687;28;20019;-70
2023/08/13 10:25:44;;;;;;;5.78;2.08;;;;;;;22.56;75.85;101561.13;5074467;28;20016;-70
2023/08/13 10:28:22;;;;;;;8.52;2.05;;;;;;;22.53;74.96;101560.59;5075735;28;20414;-70
2023/08/13 10:30:47;;;;;;;3.72;2.40;;;;;;;22.58;78.18;101557.06;5073937;28;20451;-70
2023/08/13 10:33:14;;;;;;;7.50;3.17;;;;;;;22.64;77.21;101563.41;5073867;28;20055;-69
2023/08/13 10:35:42;;;;;;;4.28;1.90;;;;;;;22.73;76.88;101551.75;5075069;28;20039;-70
2023/08/13 10:38:08;;;;;;;5.22;1.88;;;;;;;22.71;75.05;101547.66;5074873;28;20020;-69
2023/08/13 10:40:34;;;;;;;4.70;2.45;;;;;;;22.71;77.33;101550.38;5074522;28;20056;-69
2023/08/13 10:43:00;;;;;;;7.88;2.00;;;;;;;22.66;76.29;101547.63;5073192;28;20033;-69
2023/08/13 10:45:28;;;;;;;12.13;2.33;;;;;;;22.44;76.33;101536.84;5073805;28;21327;-69
2023/08/13 10:48:02;;;;;;;6.47;2.70;;;;;;;22.40;79.11;101539.28;5075180;28;20040;-69
2023/08/13 10:50:28;;;;;;;8.07;2.58;;;;;;;22.43;78.82;101540.66;5075168;28;20028;-70
2023/08/13 10:53:13;;;;;;;5.47;3.28;;;;;;;22.63;79.98;101540.81;5073338;28;20038;-69
2023/08/13 10:55:40;;;;;;;8.63;2.20;;;;;;;22.70;77.19;101538.69;5074405;28;20043;-70
2023/08/13 10:58:07;;;;;;;5.32;2.45;;;;;;;22.72;76.61;101544.69;5074667;28;20402;-68
2023/08/13 11:00:41;;;;;;;8.43;3.15;;;;;;;22.87;77.11;101530.38;5073799;28;20036;-68
2023/08/13 11:03:19;;;;;;;6.30;2.08;;;;;;;23.01;77.01;101533.47;5074240;28;20032;-69
2023/08/13 11:05:45;;;;;;;17.67;4.32;;;;;;;23.18;77.00;101534.09;5073775;28;20028;-68
2023/08/13 11:08:17;;;;;;;6.20;2.35;;;;;;;23.35;73.10;101530.38;5072580;28;20553;-67
2023/08/13 11:10:45;;;;;;;5.22;1.85;;;;;;;23.53;74.79;101529.09;5073658;28;20034;-69
2023/08/13 11:13:11;;;;;;;9.82;2.17;;;;;;;23.59;72.39;101526.09;5073943;28;20491;-70
2023/08/13 11:15:37;;;;;;;5.15;2.00;;;;;;;23.74;73.15;101532.72;5072162;28;20028;-70